createdAt,value
2019-03-20T00:00:06.715Z,1.20
2019-03-20T00:02:32.816Z,1.10
2019-03-20T00:04:59.002Z,1.30
2019-03-20T00:07:25.195Z,1.30
2019-03-20T00:09:51.409Z,1.30
2019-03-20T00:12:17.605Z,1.30
2019-03-20T00:14:43.729Z,1.40
2019-03-20T00:17:09.837Z,1.50
2019-03-20T00:19:36.005Z,1.30
2019-03-20T00:22:02.441Z,1.10
2019-03-20T00:24:28.549Z,1.00
2019-03-20T00:26:54.732Z,0.90
2019-03-20T00:29:20.881Z,0.90
2019-03-20T00:31:47.098Z,0.80
2019-03-20T00:34:13.331Z,0.70
2019-03-20T00:36:39.597Z,0.70
2019-03-20T00:39:06.365Z,0.80
2019-03-20T00:41:32.593Z,1.00
2019-03-20T00:43:58.689Z,0.90
2019-03-20T00:46:24.766Z,0.70
2019-03-20T00:48:50.871Z,0.80
2019-03-20T00:51:16.989Z,0.70
2019-03-20T00:53:43.177Z,0.70
2019-03-20T00:56:09.310Z,0.50
2019-03-20T00:58:35.385Z,0.50
2019-03-20T01:01:01.483Z,0.60
2019-03-20T01:03:27.559Z,0.80
2019-03-20T01:05:53.704Z,0.90
2019-03-20T01:08:19.833Z,0.90
2019-03-20T01:10:46.031Z,0.70
2019-03-20T01:13:12.107Z,0.50
2019-03-20T01:15:38.347Z,0.50
2019-03-20T01:18:04.461Z,0.40
2019-03-20T01:20:30.567Z,0.60
2019-03-20T01:22:56.706Z,0.60
2019-03-20T01:25:22.905Z,0.50
2019-03-20T01:27:48.976Z,0.60
2019-03-20T01:30:30.228Z,0.50
2019-03-20T01:32:57.112Z,0.50
2019-03-20T01:35:24.007Z,0.50
2019-03-20T01:37:50.543Z,0.60
2019-03-20T01:40:16.669Z,0.70
2019-03-20T01:42:42.797Z,0.70
2019-03-20T01:45:08.921Z,0.60
2019-03-20T01:47:35.238Z,0.40
2019-03-20T01:50:01.817Z,0.30
2019-03-20T01:52:27.907Z,0.40
2019-03-20T01:54:54.039Z,0.40
2019-03-20T01:57:20.148Z,0.30
2019-03-20T01:59:46.268Z,0.40
2019-03-20T02:02:12.408Z,0.30
2019-03-20T02:04:38.485Z,0.30
2019-03-20T02:07:04.652Z,0.30
2019-03-20T02:09:30.834Z,0.40
2019-03-20T02:11:56.926Z,0.20
2019-03-20T02:14:23.079Z,0.30
2019-03-20T02:16:49.246Z,0.40
2019-03-20T02:19:15.440Z,0.50
2019-03-20T02:21:41.666Z,0.50
2019-03-20T02:24:07.838Z,0.60
2019-03-20T02:26:33.954Z,0.70
2019-03-20T02:29:00.063Z,0.80
2019-03-20T02:31:26.205Z,0.60
2019-03-20T02:33:52.435Z,0.50
2019-03-20T02:36:18.726Z,0.70
2019-03-20T02:38:44.865Z,0.70
2019-03-20T02:41:11.077Z,0.80
2019-03-20T02:43:37.157Z,0.70
2019-03-20T02:46:03.354Z,0.60
2019-03-20T02:48:29.490Z,0.60
2019-03-20T02:50:55.726Z,0.50
2019-03-20T02:53:21.806Z,0.50
2019-03-20T02:55:47.910Z,0.60
2019-03-20T02:58:14.020Z,0.50
2019-03-20T03:00:40.257Z,0.60
2019-03-20T03:03:06.402Z,0.60
2019-03-20T03:05:32.578Z,0.50
2019-03-20T03:07:58.703Z,0.60
2019-03-20T03:10:24.826Z,0.80
2019-03-20T03:12:50.957Z,0.90
2019-03-20T03:15:17.156Z,1.00
2019-03-20T03:17:44.184Z,0.90
2019-03-20T03:20:14.145Z,0.80
2019-03-20T03:22:40.414Z,0.80
2019-03-20T03:25:07.838Z,0.60
2019-03-20T03:27:33.979Z,0.60
2019-03-20T03:30:00.069Z,0.50
2019-03-20T03:32:26.190Z,0.40
2019-03-20T03:34:52.496Z,0.30
2019-03-20T03:37:18.629Z,0.20
2019-03-20T03:39:44.859Z,0.20
2019-03-20T03:42:11.022Z,0.30
2019-03-20T03:44:37.120Z,0.60
2019-03-20T03:47:03.249Z,0.70
2019-03-20T03:49:29.441Z,0.60
2019-03-20T03:51:55.582Z,0.50
2019-03-20T03:54:21.821Z,0.40
2019-03-20T03:56:48.041Z,0.60
2019-03-20T03:59:14.338Z,0.70
2019-03-20T04:01:40.508Z,0.50
2019-03-20T04:04:06.629Z,0.40
2019-03-20T04:06:35.843Z,0.50
2019-03-20T04:09:00.845Z,0.60
2019-03-20T04:11:26.969Z,0.50
2019-03-20T04:13:53.181Z,0.50
2019-03-20T04:16:19.514Z,0.30
2019-03-20T04:18:45.576Z,0.30
2019-03-20T04:21:12.100Z,0.30
2019-03-20T04:23:38.266Z,0.40
2019-03-20T04:26:04.416Z,0.30
2019-03-20T04:28:30.847Z,0.30
2019-03-20T04:30:57.061Z,0.30
2019-03-20T04:33:23.299Z,0.30
2019-03-20T04:35:49.472Z,0.20
2019-03-20T04:38:15.581Z,0.30
2019-03-20T04:40:41.720Z,0.30
2019-03-20T04:43:07.812Z,0.20
2019-03-20T04:45:33.947Z,0.10
2019-03-20T04:48:00.230Z,0.20
2019-03-20T04:50:26.351Z,0.30
2019-03-20T04:52:52.512Z,0.20
2019-03-20T04:55:18.795Z,0.00
2019-03-20T04:57:45.906Z,-0.10
2019-03-20T05:00:17.165Z,-0.10
2019-03-20T05:02:43.425Z,-0.20
2019-03-20T05:05:09.813Z,-0.40
2019-03-20T05:07:36.033Z,-0.40
2019-03-20T05:10:05.537Z,-0.40
2019-03-20T05:12:31.657Z,-0.50
2019-03-20T05:14:57.924Z,-0.60
2019-03-20T05:17:24.135Z,-0.70
2019-03-20T05:19:50.767Z,-0.70
2019-03-20T05:22:16.964Z,-0.70
2019-03-20T05:24:43.346Z,-0.60
2019-03-20T05:27:09.524Z,-0.60
2019-03-20T05:29:36.239Z,-0.80
2019-03-20T05:32:02.557Z,-0.70
2019-03-20T05:34:28.628Z,-0.70
2019-03-20T05:36:54.765Z,-0.80
2019-03-20T05:39:20.859Z,-0.80
2019-03-20T05:41:46.959Z,-0.80
2019-03-20T05:44:13.089Z,-0.60
2019-03-20T05:46:39.325Z,-0.50
2019-03-20T05:49:05.425Z,-0.50
2019-03-20T05:51:31.555Z,-0.50
2019-03-20T05:53:57.735Z,-0.50
2019-03-20T05:56:23.823Z,-0.60
2019-03-20T05:58:49.975Z,-0.60
2019-03-20T06:01:16.055Z,-0.60
2019-03-20T06:03:42.206Z,-0.60
2019-03-20T06:06:08.327Z,-0.50
2019-03-20T06:08:34.438Z,-0.50
2019-03-20T06:11:00.556Z,-0.50
2019-03-20T06:13:26.663Z,-0.40
2019-03-20T06:15:52.767Z,-0.30
2019-03-20T06:18:19.036Z,-0.20
2019-03-20T06:20:45.225Z,-0.10
2019-03-20T06:23:11.383Z,0.00
2019-03-20T06:25:37.703Z,0.20
2019-03-20T06:28:03.931Z,0.50
2019-03-20T06:30:30.148Z,0.60
2019-03-20T06:32:56.215Z,0.70
2019-03-20T06:35:22.309Z,0.70
2019-03-20T06:37:48.395Z,0.80
2019-03-20T06:40:15.754Z,0.90
2019-03-20T06:42:41.818Z,1.00
2019-03-20T06:45:11.339Z,1.00
2019-03-20T06:47:57.339Z,1.20
2019-03-20T06:50:23.653Z,1.30
2019-03-20T06:52:49.830Z,1.20
2019-03-20T06:55:16.123Z,1.20
2019-03-20T06:57:42.457Z,1.20
2019-03-20T07:00:32.095Z,1.30
2019-03-20T07:03:00.260Z,1.50
2019-03-20T07:05:48.573Z,1.80
2019-03-20T07:08:15.905Z,2.00
2019-03-20T07:11:04.959Z,2.20
2019-03-20T07:13:31.239Z,2.30
2019-03-20T07:15:57.319Z,2.30
2019-03-20T07:18:23.457Z,2.40
2019-03-20T07:20:49.664Z,2.50
2019-03-20T07:23:15.834Z,2.80
2019-03-20T07:25:41.963Z,3.10
2019-03-20T07:28:08.047Z,3.20
2019-03-20T07:30:34.259Z,3.40
2019-03-20T07:33:00.407Z,3.40
2019-03-20T07:35:26.492Z,3.60
2019-03-20T07:37:56.311Z,3.80
2019-03-20T07:40:20.776Z,3.90
2019-03-20T07:42:46.958Z,3.90
2019-03-20T07:45:13.279Z,4.10
2019-03-20T07:47:39.612Z,4.20
2019-03-20T07:50:07.048Z,4.20
2019-03-20T07:52:33.298Z,4.20
2019-03-20T07:54:59.449Z,4.50
2019-03-20T07:57:25.731Z,4.60
2019-03-20T07:59:51.882Z,4.60
2019-03-20T08:02:17.972Z,4.60
2019-03-20T08:04:44.155Z,4.60
2019-03-20T08:07:10.306Z,4.50
2019-03-20T08:09:36.591Z,4.70
2019-03-20T08:12:03.124Z,5.00
2019-03-20T08:14:29.244Z,5.40
2019-03-20T08:16:55.354Z,5.60
2019-03-20T08:19:21.495Z,5.40
2019-03-20T08:21:47.686Z,5.30
2019-03-20T08:24:13.785Z,5.40
2019-03-20T08:26:40.025Z,5.40
2019-03-20T08:29:06.100Z,5.50
2019-03-20T08:31:32.350Z,5.80
2019-03-20T08:33:58.863Z,5.80
2019-03-20T08:36:24.958Z,6.10
2019-03-20T08:38:51.223Z,6.30
2019-03-20T08:41:17.428Z,6.20
2019-03-20T08:43:45.615Z,6.40
2019-03-20T08:46:11.615Z,6.50
2019-03-20T08:48:37.701Z,6.60
2019-03-20T08:51:03.849Z,7.00
2019-03-20T08:53:30.055Z,7.40
2019-03-20T08:55:56.132Z,7.60
2019-03-20T08:58:22.277Z,8.00
2019-03-20T09:00:48.603Z,8.20
2019-03-20T09:03:14.838Z,8.40
2019-03-20T09:05:41.071Z,8.70
2019-03-20T09:08:07.254Z,8.90
2019-03-20T09:10:33.384Z,9.20
2019-03-20T09:12:59.527Z,9.00
2019-03-20T09:15:25.738Z,8.90
2019-03-20T09:17:51.894Z,9.20
2019-03-20T09:20:22.036Z,9.50
2019-03-20T09:22:48.307Z,9.80
2019-03-20T09:25:21.623Z,9.70
2019-03-20T09:27:48.144Z,9.90
2019-03-20T09:30:21.714Z,10.10
2019-03-20T09:32:47.795Z,10.00
2019-03-20T09:35:14.339Z,10.30
2019-03-20T09:37:50.897Z,10.20
2019-03-20T09:40:16.727Z,10.10
2019-03-20T09:42:43.015Z,10.10
2019-03-20T09:45:11.875Z,10.30
2019-03-20T09:47:38.093Z,10.80
2019-03-20T09:50:07.936Z,10.70
2019-03-20T09:52:34.042Z,11.10
2019-03-20T09:55:00.351Z,11.50
2019-03-20T09:57:26.659Z,11.60
2019-03-20T09:59:52.766Z,12.00
2019-03-20T10:02:18.897Z,12.40
2019-03-20T10:04:44.980Z,12.60
2019-03-20T10:07:11.086Z,12.70
2019-03-20T10:09:37.201Z,12.90
2019-03-20T10:12:03.899Z,12.70
2019-03-20T10:14:29.981Z,12.00
2019-03-20T10:16:56.121Z,12.60
2019-03-20T10:19:22.256Z,12.90
2019-03-20T10:21:48.434Z,12.80
2019-03-20T10:24:14.563Z,13.00
2019-03-20T10:26:40.759Z,12.80
2019-03-20T10:29:06.879Z,12.90
2019-03-20T10:31:33.056Z,12.70
2019-03-20T10:33:59.338Z,12.80
2019-03-20T10:36:25.498Z,13.20
2019-03-20T10:38:51.690Z,13.40
2019-03-20T10:41:17.901Z,13.40
2019-03-20T10:43:44.047Z,12.80
2019-03-20T10:46:10.208Z,13.00
2019-03-20T10:48:36.284Z,13.00
2019-03-20T10:51:02.526Z,12.90
2019-03-20T10:53:28.600Z,13.00
2019-03-20T10:55:54.705Z,12.60
2019-03-20T10:58:20.835Z,12.40
2019-03-20T11:00:47.066Z,12.60
2019-03-20T11:03:13.236Z,12.80
2019-03-20T11:05:39.389Z,13.30
2019-03-20T11:08:05.688Z,13.90
2019-03-20T11:10:31.859Z,13.80
2019-03-20T11:12:58.022Z,14.40
2019-03-20T11:15:24.962Z,14.50
2019-03-20T11:17:51.204Z,14.40
2019-03-20T11:20:20.027Z,14.30
2019-03-20T11:22:46.614Z,14.20
2019-03-20T11:25:14.827Z,14.00
2019-03-20T11:27:40.931Z,14.30
2019-03-20T11:30:13.689Z,14.40
2019-03-20T11:32:40.129Z,14.50
2019-03-20T11:35:06.440Z,14.50
2019-03-20T11:37:32.591Z,14.70
2019-03-20T11:39:58.779Z,14.80
2019-03-20T11:42:25.015Z,14.60
2019-03-20T11:44:51.149Z,14.80
2019-03-20T11:47:17.263Z,15.10
2019-03-20T11:49:43.399Z,15.10
2019-03-20T11:52:09.471Z,15.30
2019-03-20T11:54:36.549Z,14.90
2019-03-20T11:57:02.947Z,14.60
2019-03-20T11:59:29.080Z,14.50
2019-03-20T12:01:55.188Z,14.50
2019-03-20T12:04:21.282Z,14.30
2019-03-20T12:06:47.511Z,14.00
2019-03-20T12:09:13.739Z,14.50
2019-03-20T12:11:45.836Z,14.50
2019-03-20T12:14:08.006Z,14.80
2019-03-20T12:16:34.143Z,15.30
2019-03-20T12:19:00.202Z,15.30
2019-03-20T12:21:26.313Z,15.40
2019-03-20T12:23:52.599Z,15.50
2019-03-20T12:26:18.686Z,15.50
2019-03-20T12:28:44.820Z,14.60
2019-03-20T12:31:11.148Z,14.90
2019-03-20T12:33:37.270Z,15.40
2019-03-20T12:36:03.510Z,15.40
2019-03-20T12:38:29.603Z,15.80
2019-03-20T12:40:55.758Z,15.80
2019-03-20T12:43:22.088Z,14.80
2019-03-20T12:45:48.210Z,15.00
2019-03-20T12:48:16.795Z,15.00
2019-03-20T12:50:43.162Z,15.40
2019-03-20T12:53:15.099Z,15.60
2019-03-20T12:55:41.171Z,16.00
2019-03-20T12:58:07.345Z,16.10
2019-03-20T13:00:33.664Z,16.10
2019-03-20T13:02:59.771Z,15.90
2019-03-20T13:05:25.894Z,16.00
2019-03-20T13:07:52.120Z,16.10
2019-03-20T13:10:22.842Z,15.60
2019-03-20T13:12:49.147Z,15.40
2019-03-20T13:15:25.521Z,15.10
2019-03-20T13:17:52.891Z,15.30
2019-03-20T13:20:19.709Z,15.60
2019-03-20T13:22:49.198Z,15.40
2019-03-20T13:25:15.547Z,15.90
2019-03-20T13:27:41.741Z,16.00
2019-03-20T13:30:20.693Z,16.20
2019-03-20T13:32:46.964Z,16.50
2019-03-20T13:35:13.050Z,15.70
2019-03-20T13:37:39.167Z,15.90
2019-03-20T13:40:14.329Z,15.90
2019-03-20T13:42:36.430Z,16.20
2019-03-20T13:45:06.336Z,16.30
2019-03-20T13:47:32.412Z,16.50
2019-03-20T13:49:58.517Z,16.30
2019-03-20T13:52:24.880Z,16.60
2019-03-20T13:54:51.115Z,16.30
2019-03-20T13:57:17.337Z,16.50
2019-03-20T13:59:43.478Z,16.80
2019-03-20T14:02:09.692Z,16.80
2019-03-20T14:04:36.022Z,16.50
2019-03-20T14:07:02.110Z,16.40
2019-03-20T14:09:28.248Z,16.30
2019-03-20T14:11:54.425Z,16.20
2019-03-20T14:14:20.573Z,16.20
2019-03-20T14:16:46.828Z,16.30
2019-03-20T14:19:12.905Z,16.10
2019-03-20T14:21:39.038Z,16.00
2019-03-20T14:24:05.223Z,16.10
2019-03-20T14:26:31.427Z,16.30
2019-03-20T14:28:57.562Z,16.70
2019-03-20T14:31:23.659Z,17.10
2019-03-20T14:33:49.765Z,17.40
2019-03-20T14:36:15.898Z,17.50
2019-03-20T14:38:41.992Z,17.40
2019-03-20T14:41:08.178Z,17.60
2019-03-20T14:43:34.370Z,18.00
2019-03-20T14:46:00.471Z,18.40
2019-03-20T14:48:26.598Z,18.80
2019-03-20T14:50:52.718Z,20.00
2019-03-20T14:53:18.945Z,21.00
2019-03-20T14:55:45.176Z,21.60
2019-03-20T14:58:11.369Z,22.70
2019-03-20T15:00:37.493Z,23.30
2019-03-20T15:03:03.791Z,23.40
2019-03-20T15:05:29.891Z,21.90
2019-03-20T15:07:56.081Z,20.60
2019-03-20T15:10:26.062Z,19.30
2019-03-20T15:12:52.889Z,18.20
2019-03-20T15:15:34.895Z,17.50
2019-03-20T15:18:01.218Z,17.50
2019-03-20T15:32:58.778Z,15.40
2019-03-20T15:35:25.125Z,15.10
2019-03-20T15:37:51.328Z,15.00
2019-03-20T15:40:22.387Z,15.00
2019-03-20T15:42:48.632Z,14.80
2019-03-20T15:45:15.912Z,14.70
2019-03-20T15:47:42.340Z,14.50
2019-03-20T15:50:11.822Z,14.60
2019-03-20T15:52:37.900Z,14.40
2019-03-20T15:55:07.869Z,14.30
2019-03-20T15:57:34.047Z,14.20
2019-03-20T16:00:00.313Z,14.10
2019-03-20T16:02:26.531Z,13.90
2019-03-20T16:04:52.716Z,13.80
2019-03-20T16:07:18.858Z,13.80
2019-03-20T16:09:44.951Z,13.60
2019-03-20T16:12:11.135Z,13.70
2019-03-20T16:14:37.263Z,13.60
2019-03-20T16:17:03.343Z,13.50
2019-03-20T16:19:29.478Z,13.40
2019-03-20T16:21:55.720Z,13.40
2019-03-20T16:24:21.850Z,13.30
2019-03-20T16:26:48.095Z,13.20
2019-03-20T16:29:14.314Z,13.10
2019-03-20T16:31:40.411Z,13.00
2019-03-20T16:34:06.690Z,12.90
2019-03-20T16:36:32.909Z,12.90
2019-03-20T16:38:59.096Z,12.80
2019-03-20T16:41:25.233Z,12.60
2019-03-20T16:43:51.329Z,12.50
2019-03-20T16:46:17.443Z,12.50
2019-03-20T16:48:43.582Z,12.40
2019-03-20T16:51:09.650Z,12.40
2019-03-20T16:53:35.771Z,12.20
2019-03-20T16:56:02.001Z,12.10
2019-03-20T16:58:28.182Z,12.10
2019-03-20T17:00:54.454Z,11.90
2019-03-20T17:03:20.640Z,11.90
2019-03-20T17:05:46.711Z,11.70
2019-03-20T17:08:12.855Z,11.70
2019-03-20T17:10:42.896Z,11.60
2019-03-20T17:13:09.088Z,11.50
2019-03-20T17:15:36.655Z,11.50
2019-03-20T17:18:03.762Z,11.40
2019-03-20T17:20:29.909Z,11.20
2019-03-20T17:22:56.213Z,11.10
2019-03-20T17:25:22.758Z,10.80
2019-03-20T17:27:49.038Z,10.60
2019-03-20T17:30:20.384Z,10.60
2019-03-20T17:32:46.804Z,10.50
2019-03-20T17:35:13.442Z,10.40
2019-03-20T17:37:39.689Z,10.20
2019-03-20T17:40:09.754Z,10.10
2019-03-20T17:42:35.966Z,10.00
2019-03-20T17:45:04.923Z,10.00
2019-03-20T17:47:31.147Z,9.80
2019-03-20T17:49:57.230Z,9.80
2019-03-20T17:52:23.343Z,9.70
2019-03-20T17:54:49.476Z,9.50
2019-03-20T17:57:15.714Z,9.30
2019-03-20T17:59:41.879Z,9.20
2019-03-20T18:02:08.039Z,9.00
2019-03-20T18:04:34.264Z,8.80
2019-03-20T18:07:00.537Z,9.00
2019-03-20T18:09:26.600Z,9.00
2019-03-20T18:11:52.945Z,9.00
2019-03-20T18:14:19.078Z,8.80
2019-03-20T18:16:45.259Z,8.60
2019-03-20T18:19:11.353Z,8.40
2019-03-20T18:21:37.573Z,8.30
2019-03-20T18:24:03.982Z,8.20
2019-03-20T18:26:30.126Z,8.10
2019-03-20T18:28:56.366Z,8.10
2019-03-20T18:31:22.542Z,8.00
2019-03-20T18:33:48.672Z,8.00
2019-03-20T18:36:14.744Z,7.90
2019-03-20T18:38:40.828Z,7.90
2019-03-20T18:41:07.077Z,7.80
2019-03-20T18:43:33.195Z,7.70
2019-03-20T18:45:59.402Z,7.60
2019-03-20T18:48:25.648Z,7.60
2019-03-20T18:50:51.828Z,7.50
2019-03-20T18:53:17.933Z,7.40
2019-03-20T18:55:44.073Z,7.30
2019-03-20T18:58:10.274Z,7.20
2019-03-20T19:00:36.527Z,7.20
2019-03-20T19:03:12.153Z,7.00
2019-03-20T19:05:42.166Z,7.00
2019-03-20T19:08:08.553Z,6.90
2019-03-20T19:10:35.057Z,6.90
2019-03-20T19:13:01.482Z,6.80
2019-03-20T19:15:27.712Z,6.70
2019-03-20T19:17:53.956Z,6.60
2019-03-20T19:20:20.296Z,6.50
2019-03-20T19:22:46.530Z,6.40
2019-03-20T19:25:15.415Z,6.30
2019-03-20T19:27:41.646Z,6.20
2019-03-20T19:30:11.632Z,6.20
2019-03-20T19:32:37.793Z,6.20
2019-03-20T19:35:07.204Z,6.10
2019-03-20T19:37:33.441Z,6.00
2019-03-20T19:39:59.653Z,6.00
2019-03-20T19:42:25.890Z,5.90
2019-03-20T19:44:52.100Z,5.90
2019-03-20T19:47:18.225Z,5.90
2019-03-20T19:49:44.436Z,5.70
2019-03-20T19:52:10.689Z,5.70
2019-03-20T19:54:36.923Z,5.50
2019-03-20T19:57:03.306Z,5.30
2019-03-20T19:59:29.554Z,5.30
2019-03-20T20:01:55.733Z,5.20
2019-03-20T20:04:22.016Z,5.00
2019-03-20T20:06:48.203Z,5.10
2019-03-20T20:09:14.317Z,5.00
2019-03-20T20:11:40.515Z,5.10
2019-03-20T20:14:06.643Z,5.10
2019-03-20T20:16:32.974Z,5.20
2019-03-20T20:18:59.131Z,5.10
2019-03-20T20:21:25.413Z,5.20
2019-03-20T20:23:51.651Z,5.10
2019-03-20T20:26:17.938Z,4.90
2019-03-20T20:28:44.091Z,4.80
2019-03-20T20:31:10.299Z,4.70
2019-03-20T20:33:38.116Z,4.60
2019-03-20T20:36:04.486Z,4.60
2019-03-20T20:38:30.727Z,4.50
2019-03-20T20:40:56.955Z,4.40
2019-03-20T20:43:23.075Z,4.40
2019-03-20T20:45:49.317Z,4.30
2019-03-20T20:48:15.587Z,4.20
2019-03-20T20:50:41.942Z,4.40
2019-03-20T20:53:08.053Z,4.40
2019-03-20T20:55:34.218Z,4.40
2019-03-20T20:58:00.382Z,4.40
2019-03-20T21:00:26.642Z,4.40
2019-03-20T21:02:52.938Z,4.50
2019-03-20T21:05:19.028Z,4.50
2019-03-20T21:07:45.169Z,4.50
2019-03-20T21:10:13.349Z,4.40
2019-03-20T21:12:39.602Z,4.40
2019-03-20T21:15:27.707Z,4.30
2019-03-20T21:18:00.553Z,4.20
2019-03-20T21:20:26.697Z,4.00
2019-03-20T21:23:25.966Z,3.80
2019-03-20T21:25:52.068Z,3.90
2019-03-20T21:28:38.709Z,3.90
2019-03-20T21:31:08.504Z,4.00
2019-03-20T21:33:43.066Z,4.10
2019-03-20T21:36:39.319Z,4.00
2019-03-20T21:39:05.949Z,4.10
2019-03-20T21:42:06.195Z,4.20
2019-03-20T21:45:03.093Z,4.20
2019-03-20T21:47:32.807Z,4.00
2019-03-20T21:50:25.349Z,3.90
2019-03-20T21:52:51.602Z,3.70
2019-03-20T21:55:41.338Z,3.60
2019-03-20T21:58:20.658Z,3.40
2019-03-20T22:01:00.287Z,3.20
2019-03-20T22:03:26.434Z,3.10
2019-03-20T22:06:05.682Z,2.90
2019-03-20T22:08:31.886Z,2.80
2019-03-20T22:11:18.655Z,2.80
2019-03-20T22:13:48.614Z,2.80
2019-03-20T22:16:51.950Z,3.00
2019-03-20T22:19:42.750Z,3.00
2019-03-20T22:22:38.570Z,3.00
2019-03-20T22:25:25.629Z,3.10
2019-03-20T22:28:13.759Z,3.20
2019-03-20T22:30:40.060Z,3.00
2019-03-20T22:33:43.918Z,3.00
2019-03-20T22:36:10.460Z,2.90
2019-03-20T22:38:52.807Z,3.10
2019-03-20T22:41:44.150Z,3.00
2019-03-20T22:44:10.317Z,2.90
2019-03-20T22:47:09.524Z,2.90
2019-03-20T22:50:03.817Z,2.90
2019-03-20T22:52:36.543Z,3.20
2019-03-20T22:55:09.242Z,3.30
2019-03-20T22:57:51.535Z,3.10
2019-03-20T23:00:17.966Z,3.00
2019-03-20T23:03:00.339Z,2.80
2019-03-20T23:05:26.475Z,2.70
2019-03-20T23:07:52.678Z,2.60
2019-03-20T23:10:18.822Z,2.30
2019-03-20T23:12:44.958Z,2.10
2019-03-20T23:15:14.419Z,1.90
2019-03-20T23:17:40.579Z,1.80
2019-03-20T23:20:10.539Z,1.70
2019-03-20T23:22:36.703Z,1.60
2019-03-20T23:25:06.256Z,1.60
2019-03-20T23:27:32.423Z,1.70
2019-03-20T23:29:58.523Z,1.90
2019-03-20T23:32:24.645Z,1.90
2019-03-20T23:34:50.799Z,1.90
2019-03-20T23:37:17.037Z,1.90
2019-03-20T23:39:43.207Z,1.90
2019-03-20T23:42:09.322Z,1.90
2019-03-20T23:44:35.451Z,2.10
2019-03-20T23:47:01.546Z,2.10
2019-03-20T23:49:27.694Z,2.10
2019-03-20T23:51:54.453Z,2.10
2019-03-20T23:54:24.425Z,2.10
2019-03-20T23:56:50.567Z,2.00
2019-03-20T23:59:16.643Z,2.00
